createdAt,value
2024-05-09T00:09:01.125Z,100592.84
2024-05-09T00:19:03.132Z,100590.13
2024-05-09T00:29:05.360Z,100588.59
2024-05-09T00:39:07.241Z,100577.41
2024-05-09T00:49:09.549Z,100596.78
2024-05-09T00:59:13.094Z,100596.91
2024-05-09T01:09:15.373Z,100589.84
2024-05-09T01:19:26.971Z,100589.66
2024-05-09T01:29:29.070Z,100595.06
2024-05-09T01:39:31.068Z,100598.50
2024-05-09T01:49:36.342Z,100602.09
2024-05-09T01:59:38.274Z,100603.00
2024-05-09T02:09:42.146Z,100598.88
2024-05-09T02:19:44.219Z,100582.66
2024-05-09T02:29:46.165Z,100595.91
2024-05-09T02:39:48.015Z,100598.75
2024-05-09T02:49:50.082Z,100601.34
2024-05-09T02:59:53.050Z,100598.72
2024-05-09T03:09:55.003Z,100592.66
2024-05-09T03:19:57.068Z,100596.25
2024-05-09T03:29:58.830Z,100596.13
2024-05-09T03:40:02.693Z,100592.00
2024-05-09T03:50:05.917Z,100599.44
2024-05-09T04:00:17.920Z,100611.69
2024-05-09T04:10:33.928Z,100609.19
2024-05-09T04:20:39.928Z,100619.56
2024-05-09T04:30:43.456Z,100632.28
2024-05-09T04:40:45.925Z,100631.22
2024-05-09T04:50:48.243Z,100640.28
2024-05-09T05:00:50.373Z,100664.91
2024-05-09T05:10:52.445Z,100666.41
2024-05-09T05:20:56.452Z,100671.72
2024-05-09T05:31:00.357Z,100677.00
2024-05-09T05:41:03.268Z,100681.91
2024-05-09T05:51:08.921Z,100691.06
2024-05-09T06:01:12.382Z,100687.16
2024-05-09T06:11:15.597Z,100697.28
2024-05-09T06:21:29.681Z,100707.38
2024-05-09T06:31:31.750Z,100708.19
2024-05-09T06:41:33.808Z,100709.38
2024-05-09T06:51:39.412Z,100711.19
2024-05-09T07:01:41.810Z,100716.59
2024-05-09T07:11:43.802Z,100724.66
2024-05-09T07:21:45.800Z,100719.66
2024-05-09T07:31:48.839Z,100715.63
2024-05-09T07:41:51.389Z,100706.22
2024-05-09T07:53:21.663Z,100695.59
2024-05-09T08:02:18.276Z,100708.81
2024-05-09T08:12:20.630Z,100705.44
2024-05-09T08:22:22.695Z,100710.47
2024-05-09T08:32:27.409Z,100709.53
2024-05-09T08:42:36.524Z,100714.63
2024-05-09T08:52:42.055Z,100715.06
2024-05-09T09:02:45.454Z,100721.44
2024-05-09T09:12:58.774Z,100717.88
2024-05-09T09:23:01.782Z,100701.88
2024-05-09T09:33:04.156Z,100693.63
2024-05-09T09:43:14.297Z,100701.34
2024-05-09T09:53:17.120Z,100700.50
2024-05-09T10:03:19.296Z,100699.88
2024-05-09T10:13:35.059Z,100684.56
2024-05-09T10:23:37.243Z,100686.59
2024-05-09T10:33:51.180Z,100674.47
2024-05-09T10:43:54.299Z,100660.91
2024-05-09T10:53:59.202Z,100661.25
2024-05-09T11:04:04.262Z,100663.94
2024-05-09T11:14:15.483Z,100662.91
2024-05-09T11:24:17.686Z,100645.16
2024-05-09T11:34:19.763Z,100641.09
2024-05-09T11:44:21.967Z,100630.38
2024-05-09T12:25:20.266Z,100593.59
2024-05-09T12:35:22.201Z,100595.59
2024-05-09T12:45:24.138Z,100585.09
2024-05-09T12:55:26.946Z,100585.59
2024-05-09T13:05:29.356Z,100580.13
2024-05-09T13:25:55.350Z,100572.59
2024-05-09T13:35:57.382Z,100556.59
2024-05-09T13:45:59.554Z,100544.91
2024-05-09T13:56:01.541Z,100537.25
2024-05-09T14:06:03.725Z,100552.91
2024-05-09T14:16:06.495Z,100541.34
2024-05-09T16:32:44.478Z,100497.28
2024-05-09T16:42:46.585Z,100501.38
2024-05-09T16:52:48.632Z,100507.97
2024-05-09T17:07:00.519Z,100499.69
2024-05-09T17:17:02.691Z,100518.16
2024-05-09T17:27:05.065Z,100512.97
2024-05-09T17:37:07.102Z,100516.97
2024-05-09T17:47:08.994Z,100522.44
2024-05-09T17:57:10.999Z,100535.16
2024-05-09T18:07:13.103Z,100535.06
2024-05-09T18:17:15.313Z,100544.44
2024-05-09T18:27:17.413Z,100556.81
2024-05-09T18:37:19.551Z,100562.63
2024-05-09T18:47:21.957Z,100579.34
2024-05-09T18:57:25.105Z,100589.94
2024-05-09T19:07:27.180Z,100602.53
2024-05-09T19:17:29.983Z,100603.16
2024-05-09T19:27:32.243Z,100619.28
2024-05-09T19:37:34.263Z,100623.00
2024-05-09T19:47:36.333Z,100631.16
2024-05-09T19:57:38.392Z,100644.16
2024-05-09T20:07:40.251Z,100645.97
2024-05-09T20:17:42.266Z,100657.63
2024-05-09T20:27:44.730Z,100666.91
2024-05-09T20:37:46.777Z,100672.63
2024-05-09T20:47:50.264Z,100680.19
2024-05-09T20:57:52.585Z,100681.41
2024-05-09T21:07:54.503Z,100699.22
2024-05-09T21:17:56.492Z,100697.66
2024-05-09T21:27:59.025Z,100702.84
2024-05-09T21:38:00.991Z,100710.25
2024-05-09T21:48:04.168Z,100714.06
2024-05-09T21:58:06.278Z,100717.72
2024-05-09T22:08:08.430Z,100718.75
2024-05-09T22:18:11.317Z,100719.06
2024-05-09T22:28:15.892Z,100727.03
2024-05-09T22:38:17.971Z,100725.72
2024-05-09T22:48:20.145Z,100720.81
2024-05-09T22:58:23.308Z,100718.47
2024-05-09T23:08:25.538Z,100729.06
2024-05-09T23:18:27.439Z,100737.19
2024-05-09T23:28:29.403Z,100733.88
2024-05-09T23:38:31.464Z,100733.09
2024-05-09T23:48:33.450Z,100732.22
2024-05-09T23:58:35.504Z,100727.13
